An Run Da 2 — BHNX — position and weather

sailwx.info

Track history (hours):
 
Tides and Currents Weather Stations Pressure Air Temp Water Temp Dewpoint Dewpoint Depression Visibility Wind Speed Wind Dir Waves Ship Positions

An Run Da 2

Last reported at 2017-Feb-25 06:32 UTC. Time now 2017-Feb-26 14:33 UTC.
Position N 37°39' E 122°12'.

Length 147 m; draft 7.7 m.

MMSI: 413360230.

Date/timePositionNaut miles runAvg speedWind from/ knotsBaromVisibWave heightAir tempDewpointWater temp
2017-Feb-25 06:32N 37°39' E 122°12'1110.9
2017-Feb-25 05:33N 37°42' E 121°59'1110.8
2017-Feb-25 04:33N 37°46' E 121°46'1110.6
2017-Feb-25 03:33N 37°49' E 121°33'1110.5
2017-Feb-25 02:33N 37°52' E 121°21'  
2017-Feb-22 12:29N 37°53' E 121°24'1010.6
2017-Feb-22 11:33N 37°51' E 121°36'1010.2
2017-Feb-22 10:34N 37°48' E 121°49'  
2017-Feb-15 11:29N 31°02' E 122°31'9 9.4
2017-Feb-15 10:33N 31°06' E 122°21'1111.4
2017-Feb-15 09:33N 31°11' E 122°10'1010.0
2017-Feb-15 08:34N 31°15' E 121°59'8 7.9
2017-Feb-15 07:33N 31°17' E 121°50'  
Track history (hours):
 
Tides and Currents Weather Stations Pressure Air Temp Water Temp Dewpoint Dewpoint Depression Visibility Wind Speed Wind Dir Waves Ship Positions

An Run Da 2

Last reported at 2017-Feb-25 06:32 UTC. Time now 2017-Feb-26 14:33 UTC.
Position N 37°39' E 122°12'.

Length 147 m; draft 7.7 m.

MMSI: 413360230.

Date/timePositionNaut miles runAvg speedWind from/ knotsBaromVisibWave heightAir tempDewpointWater temp
2017-Feb-25 06:32N 37°39' E 122°12'1110.9
2017-Feb-25 05:33N 37°42' E 121°59'1110.8
2017-Feb-25 04:33N 37°46' E 121°46'1110.6
2017-Feb-25 03:33N 37°49' E 121°33'1110.5
2017-Feb-25 02:33N 37°52' E 121°21'  
2017-Feb-22 12:29N 37°53' E 121°24'1010.6
2017-Feb-22 11:33N 37°51' E 121°36'1010.2
2017-Feb-22 10:34N 37°48' E 121°49'  
2017-Feb-15 11:29N 31°02' E 122°31'9 9.4
2017-Feb-15 10:33N 31°06' E 122°21'1111.4
2017-Feb-15 09:33N 31°11' E 122°10'1010.0
2017-Feb-15 08:34N 31°15' E 121°59'8 7.9
2017-Feb-15 07:33N 31°17' E 121°50'  

Dump ship's entire track history